Главная страница
METAR-TAF:

METAR-TAF

Аэропорты :

Пардубице, Чехия

широта: 50-00-48N, долгота: 15-44-19E, высота над уровнем моря: 226 м

Текущие метеонаблюдения

Эта сводка был подготовлена 54 минут назад, в 18:00 UTC
Ветер 5 Узел от восточный
Температура 6°C
Влажность 70%
Давление 1030 hPa
Видимость 10 км и более
Отдельные облака на высоте 4000 фута

METAR: LKPD 151800Z 09005KT 9999 SCT040 06/01 Q1030 RMK BLACK

Время: 19:54 (18:54 UTC)


TAF: отсутствует

Метеонаблюдения и прогнозы для более 4000 аэропортов (сводки METAR и TAF).

Имеющиеся станции представлены на карте желтыми и красными точками.

Чтобы увидеть название станции, наведите на нее мышь.

Затем щелкните, чтобы увидеть метеонаблюдения и метеопрогнозы.

Управление картой: чтобы увеличить масштаб, щелкните зеленые кнопки с черным крестиком; чтобы уменьшить масштаб, щелкните зеленую кнопку с тире; для просмотра соседних карт щелкайте зеленые стрелки.


METAR-TAF: